Time;durP1;ratioP1;P1;durP2;ratioP2;P2;SDS_P1;SDS_P2;PMS_P1;PMS_P2;Temp;Humidity;BMP_temperature;BMP_pressure;BME280_temperature;BME280_humidity;BME280_pressure;Samples;Min_cycle;Max_cycle;Signal;HPM_P1;HPM_P2
2023/03/16 00:02:17;;;;;;;5.05;3.25;;;2.80;99.90;;;;;;5093647;28;20058;-80
2023/03/16 00:04:46;;;;;;;7.15;4.07;;;2.80;99.90;;;;;;5092752;28;20471;-80
2023/03/16 00:07:12;;;;;;;6.10;3.42;;;2.80;99.90;;;;;;5108647;28;20039;-80
2023/03/16 00:09:41;;;;;;;6.25;3.40;;;2.80;99.90;;;;;;5110344;28;20463;-80
2023/03/16 00:12:20;;;;;;;4.57;3.13;;;2.80;99.90;;;;;;5092813;28;20058;-80
2023/03/16 00:14:47;;;;;;;5.03;3.05;;;2.90;99.90;;;;;;5098166;28;20108;-80
2023/03/16 00:17:18;;;;;;;8.52;3.85;;;2.90;99.90;;;;;;5088626;28;20473;-80
2023/03/16 00:19:53;;;;;;;5.57;3.70;;;2.90;99.90;;;;;;5072188;28;20168;-80
2023/03/16 00:22:20;;;;;;;5.57;3.70;;;2.90;99.90;;;;;;5089181;28;20358;-80
2023/03/16 00:24:46;;;;;;;5.32;3.50;;;2.90;99.90;;;;;;5089064;28;20044;-80
2023/03/16 00:27:16;;;;;;;5.40;3.45;;;2.90;99.90;;;;;;5093210;28;20043;-80
2023/03/16 00:29:47;;;;;;;5.47;3.60;;;3.60;99.90;;;;;;5076434;28;20042;-80
2023/03/16 00:32:17;;;;;;;5.07;3.47;;;2.90;99.90;;;;;;5093040;28;20150;-80
2023/03/16 00:34:46;;;;;;;7.18;3.50;;;3.00;99.90;;;;;;5075199;28;20062;-80
2023/03/16 00:37:14;;;;;;;6.15;3.30;;;3.00;99.90;;;;;;5075642;28;20119;-80
2023/03/16 00:39:45;;;;;;;4.50;3.40;;;3.00;99.90;;;;;;5076075;28;20193;-80
2023/03/16 00:42:13;;;;;;;7.65;3.75;;;3.00;99.90;;;;;;5092470;28;20100;-80
2023/03/16 00:44:40;;;;;;;9.63;4.00;;;3.00;99.90;;;;;;5075056;28;20189;-80
2023/03/16 00:47:07;;;;;;;6.53;3.80;;;3.10;99.90;;;;;;5092936;28;20509;-80
2023/03/16 00:49:34;;;;;;;5.57;3.70;;;3.10;99.90;;;;;;5093269;28;20048;-80
2023/03/16 00:52:05;;;;;;;6.65;3.83;;;3.10;99.90;;;;;;5092547;28;20051;-80
2023/03/16 00:54:31;;;;;;;6.20;4.25;;;3.10;99.90;;;;;;5093013;28;20070;-80
2023/03/16 00:56:58;;;;;;;8.13;4.15;;;3.10;99.90;;;;;;5092529;28;20048;-80
2023/03/16 00:59:25;;;;;;;7.35;4.68;;;3.10;99.90;;;;;;5092645;28;20071;-80
2023/03/16 01:01:54;;;;;;;6.40;4.07;;;3.10;99.90;;;;;;5092078;28;20055;-81
2023/03/16 01:04:20;;;;;;;7.03;4.53;;;3.10;99.90;;;;;;5102373;27;20047;-80
2023/03/16 01:06:46;;;;;;;5.47;4.05;;;3.10;99.90;;;;;;5112265;27;20047;-81
2023/03/16 01:09:13;;;;;;;6.93;4.70;;;3.10;99.90;;;;;;5112918;27;20154;-80
2023/03/16 01:11:41;;;;;;;9.00;4.72;;;3.10;99.90;;;;;;5109812;27;20066;-80
2023/03/16 01:14:08;;;;;;;8.70;4.15;;;3.50;99.90;;;;;;5110653;27;20121;-80
2023/03/16 01:16:34;;;;;;;6.10;4.25;;;2.70;99.90;;;;;;5110258;27;20054;-80
2023/03/16 01:19:00;;;;;;;10.15;4.90;;;3.10;99.90;;;;;;5111805;27;20081;-80
2023/03/16 01:21:26;;;;;;;10.05;6.05;;;3.10;99.90;;;;;;5112458;27;20497;-80
2023/03/16 01:23:52;;;;;;;13.35;4.63;;;3.10;99.90;;;;;;5112005;27;20043;-81
2023/03/16 01:26:19;;;;;;;6.63;4.82;;;3.10;99.90;;;;;;5130873;27;20081;-80
2023/03/16 01:28:45;;;;;;;8.52;5.05;;;3.10;99.90;;;;;;5111816;27;20381;-81
2023/03/16 01:31:13;;;;;;;7.82;4.97;;;3.00;99.90;;;;;;5113038;27;20047;-81
2023/03/16 01:33:40;;;;;;;6.50;5.00;;;3.00;99.90;;;;;;5111906;27;20050;-80
2023/03/16 01:36:09;;;;;;;8.35;4.70;;;3.00;99.90;;;;;;5111379;27;20051;-80
2023/03/16 01:38:35;;;;;;;9.77;5.28;;;3.00;99.90;;;;;;5095169;27;20043;-81
2023/03/16 01:41:02;;;;;;;7.30;5.30;;;2.90;99.90;;;;;;5091989;27;20078;-81
2023/03/16 01:43:30;;;;;;;7.97;4.93;;;2.90;99.90;;;;;;5090916;28;20040;-80
2023/03/16 01:46:05;;;;;;;6.35;4.40;;;2.90;99.90;;;;;;5108208;27;20517;-80
2023/03/16 01:48:36;;;;;;;8.50;5.18;;;2.80;99.90;;;;;;5098544;27;20044;-80
2023/03/16 01:51:24;;;;;;;7.55;4.72;;;2.80;99.90;;;;;;5110923;27;20099;-80
2023/03/16 01:53:54;;;;;;;5.13;4.38;;;2.80;99.90;;;;;;5109524;27;20103;-79
2023/03/16 01:56:26;;;;;;;7.90;4.60;;;2.80;99.90;;;;;;5108264;27;20047;-80
2023/03/16 01:58:57;;;;;;;8.02;4.10;;;2.70;99.90;;;;;;5111659;27;20527;-80
2023/03/16 02:01:26;;;;;;;7.07;4.60;;;2.70;99.90;;;;;;5111268;27;20648;-80
2023/03/16 02:03:58;;;;;;;6.97;4.95;;;2.70;99.90;;;;;;5094104;27;20429;-80
2023/03/16 02:06:23;;;;;;;7.28;4.85;;;2.70;99.90;;;;;;5094280;27;20498;-80
2023/03/16 02:08:50;;;;;;;7.75;4.43;;;2.90;99.90;;;;;;5110380;27;20125;-80
2023/03/16 02:11:21;;;;;;;6.63;4.70;;;2.70;99.90;;;;;;5110700;27;20043;-80
2023/03/16 02:13:47;;;;;;;6.57;4.40;;;2.70;99.90;;;;;;5129590;27;20085;-80
2023/03/16 02:16:18;;;;;;;6.97;4.82;;;2.80;99.90;;;;;;5111157;27;20499;-80
2023/03/16 02:18:47;;;;;;;7.32;4.30;;;2.70;99.90;;;;;;5110889;27;20053;-80
2023/03/16 02:21:15;;;;;;;6.10;4.93;;;2.80;99.90;;;;;;5111461;27;20434;-80
2023/03/16 02:23:43;;;;;;;7.07;4.18;;;2.80;99.90;;;;;;5110223;27;20039;-80
2023/03/16 02:26:29;;;;;;;6.95;4.88;;;2.80;99.90;;;;;;5110853;27;20047;-80
2023/03/16 02:29:13;;;;;;;8.95;4.65;;;3.20;99.90;;;;;;5111009;27;20083;-80
2023/03/16 02:31:39;;;;;;;6.78;4.78;;;2.90;99.90;;;;;;5094558;27;20047;-80
2023/03/16 02:34:06;;;;;;;7.97;4.60;;;2.90;99.90;;;;;;5111216;27;20042;-80
2023/03/16 02:36:33;;;;;;;8.38;4.35;;;2.90;99.90;;;;;;5093573;27;20473;-80
2023/03/16 02:38:58;;;;;;;7.43;5.22;;;2.90;99.90;;;;;;5111929;27;20385;-80
2023/03/16 02:41:24;;;;;;;8.77;4.25;;;3.00;99.90;;;;;;5094190;27;20122;-80
2023/03/16 02:43:55;;;;;;;6.45;4.60;;;3.00;99.90;;;;;;5110081;27;20102;-80
2023/03/16 02:46:24;;;;;;;9.48;4.72;;;3.00;99.90;;;;;;5110896;27;20518;-80
2023/03/16 02:49:15;;;;;;;5.22;4.28;;;3.10;99.90;;;;;;5110005;27;20043;-80
2023/03/16 02:51:42;;;;;;;6.18;4.18;;;3.10;99.90;;;;;;5109385;27;20055;-80
2023/03/16 02:54:08;;;;;;;7.15;4.18;;;3.20;99.90;;;;;;5110500;27;20540;-80
2023/03/16 02:56:33;;;;;;;5.30;3.80;;;3.20;99.90;;;;;;5110762;27;20035;-80
2023/03/16 02:59:00;;;;;;;5.38;4.57;;;3.20;99.90;;;;;;5111713;27;20071;-81
2023/03/16 03:01:25;;;;;;;6.55;4.53;;;4.00;99.90;;;;;;5093454;27;20045;-80
2023/03/16 03:03:51;;;;;;;6.68;3.92;;;3.30;99.90;;;;;;5110919;27;20034;-80
2023/03/16 03:06:16;;;;;;;4.85;4.10;;;3.30;99.90;;;;;;5093295;27;20027;-80
2023/03/16 03:08:42;;;;;;;5.32;4.38;;;3.30;99.90;;;;;;5093507;27;20053;-81
2023/03/16 03:11:08;;;;;;;6.22;4.07;;;3.40;99.90;;;;;;5110209;27;20129;-80
2023/03/16 03:13:34;;;;;;;5.05;3.90;;;3.40;99.90;;;;;;5109469;27;20043;-80
2023/03/16 03:16:00;;;;;;;6.20;4.35;;;3.40;99.90;;;;;;5092885;27;20413;-81
2023/03/16 03:18:29;;;;;;;7.35;4.38;;;3.40;99.90;;;;;;5110819;27;20051;-81
2023/03/16 03:20:55;;;;;;;5.88;3.97;;;3.50;99.90;;;;;;5110842;27;20149;-80
2023/03/16 03:23:20;;;;;;;7.03;4.00;;;3.50;99.90;;;;;;5110792;27;20518;-80
2023/03/16 03:25:46;;;;;;;5.25;3.88;;;3.40;99.90;;;;;;5110689;27;20061;-81
2023/03/16 03:28:13;;;;;;;7.55;4.25;;;3.50;99.90;;;;;;5111619;27;20142;-80
2023/03/16 03:30:38;;;;;;;5.10;4.60;;;3.50;99.90;;;;;;5092730;27;20388;-80
2023/03/16 03:33:04;;;;;;;6.10;4.45;;;3.50;99.90;;;;;;5110205;27;20043;-80
2023/03/16 03:35:30;;;;;;;5.80;4.28;;;3.60;99.90;;;;;;5109906;27;20039;-80
2023/03/16 03:37:56;;;;;;;7.47;4.00;;;3.60;99.90;;;;;;5110085;27;20051;-80
2023/03/16 03:40:21;;;;;;;6.32;4.25;;;3.60;99.90;;;;;;5092346;27;20051;-80
2023/03/16 03:42:48;;;;;;;5.28;4.03;;;3.60;99.90;;;;;;5093609;27;20111;-80
2023/03/16 03:45:14;;;;;;;5.45;3.83;;;3.70;99.90;;;;;;5093862;27;20139;-80
2023/03/16 03:47:41;;;;;;;6.68;4.13;;;3.70;99.90;;;;;;5109890;27;20039;-80
2023/03/16 03:50:08;;;;;;;5.75;4.15;;;3.70;99.90;;;;;;5108456;28;20078;-81
2023/03/16 03:52:34;;;;;;;4.32;3.80;;;3.70;99.90;;;;;;5091863;27;20135;-80
2023/03/16 03:54:59;;;;;;;6.25;4.47;;;3.80;99.90;;;;;;5110403;28;20489;-81
2023/03/16 03:57:25;;;;;;;8.55;3.97;;;3.80;99.90;;;;;;5092182;28;20389;-79
2023/03/16 03:59:50;;;;;;;7.60;4.03;;;4.10;99.90;;;;;;5110379;28;20054;-79
2023/03/16 04:02:16;;;;;;;4.47;3.53;;;3.80;99.90;;;;;;5109777;28;20066;-79
2023/03/16 04:04:42;;;;;;;5.43;3.90;;;3.80;99.90;;;;;;5094053;28;20082;-79
2023/03/16 04:07:11;;;;;;;5.68;3.83;;;3.80;99.90;;;;;;5109809;28;20118;-80
2023/03/16 04:09:37;;;;;;;5.15;4.05;;;3.80;99.90;;;;;;5109501;28;20177;-79
2023/03/16 04:12:05;;;;;;;6.95;4.38;;;3.80;99.90;;;;;;5107014;28;20122;-80
2023/03/16 04:14:31;;;;;;;5.30;4.25;;;3.80;99.90;;;;;;5109770;28;20035;-80
2023/03/16 04:16:56;;;;;;;6.85;4.57;;;3.80;99.90;;;;;;5109378;28;20119;-79
2023/03/16 04:19:23;;;;;;;7.78;4.55;;;3.80;99.90;;;;;;5109361;28;20475;-79
2023/03/16 04:21:49;;;;;;;5.65;3.92;;;3.80;99.90;;;;;;5091898;28;20093;-79
2023/03/16 04:24:16;;;;;;;8.57;4.47;;;3.80;99.90;;;;;;5110124;28;20055;-79
2023/03/16 04:26:46;;;;;;;4.90;4.25;;;3.80;99.90;;;;;;5093486;28;20046;-79
2023/03/16 04:29:13;;;;;;;5.65;4.00;;;3.70;99.90;;;;;;5110074;28;20047;-79
2023/03/16 04:31:44;;;;;;;8.40;4.60;;;3.80;99.90;;;;;;5109637;28;20462;-79
2023/03/16 04:34:12;;;;;;;7.85;4.60;;;3.70;99.90;;;;;;5110019;28;20495;-79
2023/03/16 04:36:38;;;;;;;5.50;4.32;;;3.70;99.90;;;;;;5109769;28;20047;-79
2023/03/16 04:39:05;;;;;;;5.65;4.22;;;3.70;99.90;;;;;;5110735;28;20473;-79
2023/03/16 04:41:35;;;;;;;5.53;4.18;;;3.70;99.90;;;;;;5092882;28;20039;-79
2023/03/16 04:44:01;;;;;;;8.07;4.30;;;3.70;99.90;;;;;;5110102;28;20043;-79
2023/03/16 04:46:28;;;;;;;7.55;4.35;;;3.70;99.90;;;;;;5087672;28;20050;-79
2023/03/16 04:48:57;;;;;;;5.68;4.45;;;3.70;99.90;;;;;;5089801;28;20054;-79
2023/03/16 04:51:23;;;;;;;6.55;4.47;;;3.70;99.90;;;;;;5092096;28;20047;-79
2023/03/16 04:53:49;;;;;;;5.60;4.65;;;3.70;99.90;;;;;;5108655;28;20061;-79
2023/03/16 04:56:17;;;;;;;6.35;4.40;;;3.70;99.90;;;;;;5109071;28;20039;-79
2023/03/16 04:58:47;;;;;;;5.65;4.32;;;3.80;99.90;;;;;;5102262;28;20439;-79
2023/03/16 05:01:13;;;;;;;7.78;4.88;;;3.80;99.90;;;;;;5089226;28;20039;-79
2023/03/16 05:03:39;;;;;;;6.47;4.53;;;3.80;99.90;;;;;;5096661;28;20043;-79
2023/03/16 05:06:05;;;;;;;6.10;4.13;;;3.80;99.90;;;;;;5109430;28;20038;-79
2023/03/16 05:08:30;;;;;;;6.55;4.40;;;3.10;99.90;;;;;;5109380;28;20117;-79
2023/03/16 05:10:57;;;;;;;6.57;4.75;;;3.90;99.90;;;;;;5091406;28;20055;-79
2023/03/16 05:13:23;;;;;;;6.03;4.32;;;3.80;99.90;;;;;;5111249;27;20043;-79
2023/03/16 05:15:48;;;;;;;5.82;4.13;;;3.80;99.90;;;;;;5111010;27;20111;-79
2023/03/16 05:18:14;;;;;;;7.15;4.93;;;3.80;99.90;;;;;;5091870;28;20039;-80
2023/03/16 05:20:41;;;;;;;7.90;4.65;;;3.80;99.90;;;;;;5089983;27;20050;-80
2023/03/16 05:23:09;;;;;;;7.30;4.70;;;3.80;99.90;;;;;;5112005;27;20055;-80
2023/03/16 05:25:34;;;;;;;6.82;4.80;;;3.80;99.90;;;;;;5111085;27;20122;-80
2023/03/16 05:28:00;;;;;;;5.82;3.90;;;3.80;99.90;;;;;;5111807;27;20130;-80
2023/03/16 05:30:26;;;;;;;4.97;4.40;;;3.80;99.90;;;;;;5094645;27;20043;-80
2023/03/16 05:32:53;;;;;;;4.95;4.40;;;3.80;99.90;;;;;;5112578;27;20035;-80
2023/03/16 05:35:21;;;;;;;8.35;4.15;;;3.80;99.90;;;;;;5111005;27;20065;-80
2023/03/16 05:37:47;;;;;;;5.53;4.40;;;3.80;99.90;;;;;;5092168;27;20050;-79
2023/03/16 05:40:17;;;;;;;7.45;4.13;;;3.80;99.90;;;;;;5112709;27;20043;-79
2023/03/16 05:42:48;;;;;;;7.28;4.57;;;3.90;99.90;;;;;;5110760;27;20190;-80
2023/03/16 05:45:15;;;;;;;7.38;4.38;;;3.80;99.90;;;;;;5111978;27;20047;-80
2023/03/16 05:47:42;;;;;;;5.25;4.07;;;4.30;99.90;;;;;;5105525;27;20039;-80
2023/03/16 05:50:10;;;;;;;8.02;4.70;;;4.30;99.90;;;;;;5112247;27;20096;-80
2023/03/16 05:52:37;;;;;;;6.60;4.57;;;3.80;99.90;;;;;;5112083;27;20043;-79
2023/03/16 05:55:08;;;;;;;5.28;4.22;;;3.90;99.90;;;;;;5112488;27;20047;-80
2023/03/16 05:57:34;;;;;;;8.05;4.45;;;3.20;99.90;;;;;;5095083;27;20039;-80
2023/03/16 06:00:18;;;;;;;8.45;4.70;;;3.90;99.90;;;;;;5112085;27;20043;-80
2023/03/16 06:02:50;;;;;;;7.70;4.88;;;3.90;99.90;;;;;;5110808;27;20039;-80
2023/03/16 06:05:20;;;;;;;7.25;4.32;;;3.90;99.90;;;;;;5094881;27;20055;-80
2023/03/16 06:07:46;;;;;;;7.43;4.70;;;3.90;99.90;;;;;;5093806;27;20111;-80
2023/03/16 06:10:13;;;;;;;6.45;4.68;;;3.90;99.90;;;;;;5094777;27;20047;-79
2023/03/16 06:12:40;;;;;;;8.75;4.78;;;3.90;99.90;;;;;;5109890;27;20482;-80
2023/03/16 06:15:09;;;;;;;5.65;4.35;;;3.90;99.90;;;;;;5130781;27;20496;-80
2023/03/16 06:17:35;;;;;;;6.30;4.30;;;3.90;99.90;;;;;;5099146;27;20073;-80
2023/03/16 06:20:02;;;;;;;6.13;4.97;;;3.90;99.90;;;;;;5093115;27;20039;-79
2023/03/16 06:22:29;;;;;;;5.43;4.32;;;4.00;99.90;;;;;;5109073;28;20051;-80
2023/03/16 06:24:54;;;;;;;5.78;4.25;;;4.00;99.90;;;;;;5128712;27;20043;-79
2023/03/16 06:27:20;;;;;;;5.30;4.15;;;4.00;99.90;;;;;;5110544;27;20095;-79
2023/03/16 06:29:46;;;;;;;6.47;4.28;;;4.00;99.90;;;;;;5110158;27;20134;-80
2023/03/16 06:32:13;;;;;;;6.72;4.70;;;4.00;99.90;;;;;;5108255;27;20122;-80
2023/03/16 06:34:40;;;;;;;5.20;4.10;;;4.10;99.90;;;;;;5111593;27;20481;-80
2023/03/16 06:37:06;;;;;;;6.10;4.55;;;4.10;99.90;;;;;;5093497;27;20505;-80
2023/03/16 06:39:32;;;;;;;5.55;4.57;;;4.10;99.90;;;;;;5111734;27;20484;-80
2023/03/16 06:41:58;;;;;;;5.78;4.15;;;4.20;99.90;;;;;;5110708;27;20091;-80
2023/03/16 06:44:23;;;;;;;5.28;4.07;;;4.20;99.90;;;;;;5094357;27;20039;-79
2023/03/16 06:46:49;;;;;;;6.38;4.13;;;4.20;99.90;;;;;;5109455;27;20050;-79
2023/03/16 06:49:15;;;;;;;5.00;4.07;;;4.30;99.90;;;;;;5111135;27;20206;-79
2023/03/16 06:51:41;;;;;;;6.07;4.60;;;4.20;99.90;;;;;;5093490;27;20043;-79
2023/03/16 06:54:06;;;;;;;4.80;4.05;;;4.30;99.90;;;;;;5111010;27;20485;-79
2023/03/16 06:56:33;;;;;;;5.95;3.92;;;4.30;99.90;;;;;;5109463;27;20477;-80
2023/03/16 06:58:59;;;;;;;7.30;4.43;;;4.40;99.90;;;;;;5108960;27;20046;-80
2023/03/16 07:01:24;;;;;;;6.35;4.78;;;4.40;99.90;;;;;;5129263;27;20039;-79
2023/03/16 07:03:50;;;;;;;6.57;4.10;;;4.50;99.90;;;;;;5109818;27;20057;-80
2023/03/16 07:06:16;;;;;;;5.57;4.63;;;4.50;99.90;;;;;;5129014;27;20039;-80
2023/03/16 07:08:42;;;;;;;6.18;4.40;;;4.60;99.90;;;;;;5110125;27;20039;-80
2023/03/16 07:11:08;;;;;;;5.10;4.00;;;4.60;99.90;;;;;;5108375;27;20481;-80
2023/03/16 07:13:34;;;;;;;5.90;3.92;;;4.60;99.90;;;;;;5093041;27;20077;-80
2023/03/16 07:16:00;;;;;;;5.45;4.65;;;4.60;99.90;;;;;;5127944;27;20087;-80
2023/03/16 07:18:26;;;;;;;5.63;4.20;;;4.60;99.90;;;;;;5091667;27;20035;-80
2023/03/16 07:20:53;;;;;;;4.97;4.00;;;4.60;99.90;;;;;;5129245;27;20556;-80
2023/03/16 07:23:19;;;;;;;4.68;4.15;;;4.70;99.90;;;;;;5093599;27;20446;-80
2023/03/16 07:25:44;;;;;;;6.75;5.28;;;5.40;99.90;;;;;;5092401;27;20286;-81
2023/03/16 07:28:10;;;;;;;5.75;4.13;;;4.70;99.90;;;;;;5107702;27;20039;-80
2023/03/16 07:30:37;;;;;;;4.80;4.30;;;5.20;99.90;;;;;;5107825;27;20039;-80
2023/03/16 07:33:04;;;;;;;7.45;3.95;;;4.80;99.90;;;;;;5099985;28;20063;-81
2023/03/16 07:35:30;;;;;;;7.05;4.47;;;4.80;99.90;;;;;;5071813;28;20070;-81
2023/03/16 07:37:56;;;;;;;4.80;4.28;;;4.90;99.90;;;;;;5089774;28;20413;-81
2023/03/16 07:40:22;;;;;;;5.93;4.03;;;4.90;99.90;;;;;;5089012;28;20043;-81
2023/03/16 07:42:48;;;;;;;6.50;3.97;;;4.90;99.90;;;;;;5108101;27;20161;-81
2023/03/16 07:45:14;;;;;;;6.38;3.80;;;5.00;99.90;;;;;;5109963;28;20046;-81
2023/03/16 07:47:40;;;;;;;5.57;3.40;;;4.90;99.90;;;;;;5109456;27;20054;-81
2023/03/16 07:50:07;;;;;;;4.60;4.07;;;5.30;99.90;;;;;;5110308;28;20043;-81
2023/03/16 07:52:33;;;;;;;4.80;4.00;;;5.10;99.90;;;;;;5106859;28;20046;-82
2023/03/16 07:54:59;;;;;;;4.97;3.90;;;5.10;99.90;;;;;;5109076;28;20065;-81
2023/03/16 07:57:24;;;;;;;5.63;3.70;;;5.60;99.90;;;;;;5092437;28;20122;-82
2023/03/16 07:59:50;;;;;;;5.43;4.10;;;5.10;99.90;;;;;;5090640;28;20165;-82
2023/03/16 08:02:18;;;;;;;6.75;4.32;;;5.20;99.90;;;;;;5109708;28;20079;-82
2023/03/16 08:04:44;;;;;;;5.68;3.90;;;5.20;99.90;;;;;;5107720;28;20130;-81
2023/03/16 08:07:11;;;;;;;7.30;4.78;;;5.30;99.90;;;;;;5107913;28;20079;-82
2023/03/16 08:09:37;;;;;;;5.90;3.75;;;5.90;99.90;;;;;;5088664;28;20047;-82
2023/03/16 08:12:04;;;;;;;4.90;4.05;;;5.40;99.90;;;;;;5109187;28;20088;-82
2023/03/16 08:14:33;;;;;;;5.68;4.07;;;5.40;99.90;;;;;;5091523;28;20150;-82
2023/03/16 08:17:02;;;;;;;8.23;4.60;;;5.40;99.90;;;;;;5108644;28;20138;-82
2023/03/16 08:19:29;;;;;;;5.22;4.47;;;5.40;99.90;;;;;;5109717;28;20078;-83
2023/03/16 08:21:55;;;;;;;6.10;4.40;;;5.50;99.90;;;;;;5092978;28;20043;-82
2023/03/16 08:24:21;;;;;;;7.03;4.70;;;5.50;99.90;;;;;;5109392;28;20039;-83
2023/03/16 08:26:47;;;;;;;6.43;4.28;;;5.50;99.90;;;;;;5109136;28;20139;-84
2023/03/16 08:29:17;;;;;;;4.00;3.60;;;5.70;99.90;;;;;;5109080;28;20122;-83
2023/03/16 08:31:43;;;;;;;5.90;4.10;;;5.50;99.90;;;;;;5109558;28;20533;-84
2023/03/16 08:34:10;;;;;;;7.13;4.50;;;5.40;99.90;;;;;;5127396;28;20039;-83
2023/03/16 08:36:36;;;;;;;5.03;4.28;;;5.40;99.90;;;;;;5089041;28;20047;-83
2023/03/16 08:39:02;;;;;;;6.28;4.35;;;5.40;99.90;;;;;;5107510;28;20477;-83
2023/03/16 08:41:29;;;;;;;6.35;4.45;;;5.40;99.90;;;;;;5089130;28;20385;-83
2023/03/16 08:43:56;;;;;;;6.32;4.38;;;5.40;99.90;;;;;;5089537;28;20406;-84
2023/03/16 08:46:23;;;;;;;7.30;4.65;;;5.50;99.90;;;;;;5109203;27;20065;-84
2023/03/16 08:48:49;;;;;;;6.95;4.32;;;5.40;99.90;;;;;;5111789;27;20107;-84
2023/03/16 08:51:16;;;;;;;7.70;4.85;;;5.30;99.90;;;;;;5111138;27;20659;-84
2023/03/16 08:53:43;;;;;;;6.20;4.22;;;5.30;99.90;;;;;;5112223;27;20083;-84
2023/03/16 08:56:12;;;;;;;6.43;4.53;;;5.40;99.90;;;;;;5095882;27;20040;-84
2023/03/16 08:58:44;;;;;;;7.90;5.10;;;5.40;99.90;;;;;;5095898;27;20528;-84
2023/03/16 09:01:14;;;;;;;6.93;4.60;;;5.40;99.90;;;;;;5113005;27;20049;-84
2023/03/16 09:03:41;;;;;;;7.07;4.50;;;5.50;99.90;;;;;;5096207;27;20092;-84
2023/03/16 09:06:09;;;;;;;6.47;4.35;;;5.70;99.90;;;;;;5112474;27;20054;-84
2023/03/16 09:08:35;;;;;;;4.68;3.97;;;5.50;99.90;;;;;;5112412;27;20461;-84
2023/03/16 09:11:04;;;;;;;7.00;5.05;;;5.40;99.90;;;;;;5112691;27;20107;-84
2023/03/16 09:13:31;;;;;;;6.63;4.35;;;5.40;99.90;;;;;;5111257;27;20057;-84
2023/03/16 09:15:58;;;;;;;8.13;4.68;;;5.40;99.90;;;;;;5094156;27;20079;-84
2023/03/16 09:18:26;;;;;;;5.10;4.30;;;5.40;99.90;;;;;;5111953;27;20100;-84
2023/03/16 09:20:57;;;;;;;8.60;4.93;;;5.40;99.90;;;;;;5111073;27;20126;-84
2023/03/16 09:23:23;;;;;;;5.07;4.33;;;5.50;99.90;;;;;;5094461;27;20051;-84
2023/03/16 09:25:49;;;;;;;6.03;4.10;;;5.40;99.90;;;;;;5106711;28;20389;-84
2023/03/16 09:28:19;;;;;;;6.45;4.32;;;5.90;99.90;;;;;;5091607;28;20051;-84
2023/03/16 09:30:44;;;;;;;6.25;4.43;;;5.50;99.90;;;;;;5091671;28;20040;-84
2023/03/16 09:33:10;;;;;;;9.13;4.68;;;5.60;99.90;;;;;;5092430;28;20464;-84
2023/03/16 09:35:36;;;;;;;7.63;4.65;;;5.60;99.90;;;;;;5093911;27;20938;-84
2023/03/16 09:38:03;;;;;;;7.07;5.03;;;5.70;99.90;;;;;;5127332;27;20058;-83
2023/03/16 09:40:29;;;;;;;6.03;4.15;;;5.80;99.90;;;;;;5109733;27;20050;-83
2023/03/16 09:43:04;;;;;;;6.38;4.63;;;5.90;99.90;;;;;;5127512;27;20044;-82
2023/03/16 09:46:04;;;;;;;7.22;5.30;;;5.90;99.90;;;;;;5098548;27;20511;-84
2023/03/16 09:48:34;;;;;;;7.07;4.65;;;6.10;99.90;;;;;;5110252;27;20047;-84
2023/03/16 09:51:06;;;;;;;7.85;4.40;;;6.10;99.90;;;;;;5111145;27;20373;-84
2023/03/16 09:53:34;;;;;;;;;;;6.20;99.90;;;;;;5093389;27;20414;-84
2023/03/16 09:56:16;;;;;;;7.70;4.50;;;6.80;99.90;;;;;;5112059;27;20372;-84
2023/03/16 09:58:41;;;;;;;6.50;4.63;;;6.30;99.90;;;;;;5109063;28;20802;-83
2023/03/16 10:01:20;;;;;;;7.40;4.93;;;6.30;99.90;;;;;;5091932;28;20054;-84
2023/03/16 10:03:48;;;;;;;7.28;5.00;;;6.30;99.90;;;;;;5094644;27;20493;-83
2023/03/16 10:06:15;;;;;;;8.40;4.70;;;6.30;99.90;;;;;;5095141;27;20516;-84
2023/03/16 10:09:01;;;;;;;6.25;4.00;;;6.20;99.90;;;;;;5109850;27;20168;-83
2023/03/16 10:11:40;;;;;;;6.55;4.72;;;6.30;99.90;;;;;;5111398;27;20137;-83
2023/03/16 10:14:18;;;;;;;7.20;4.90;;;6.30;99.90;;;;;;5130936;27;20035;-84
2023/03/16 10:16:51;;;;;;;5.85;4.60;;;6.30;99.90;;;;;;5111401;27;20501;-84
2023/03/16 10:19:19;;;;;;;6.85;4.60;;;6.40;99.90;;;;;;5112052;27;20450;-84
2023/03/16 10:21:47;;;;;;;8.18;4.38;;;6.40;99.90;;;;;;5111186;27;20053;-84
2023/03/16 10:24:35;;;;;;;6.55;4.55;;;6.40;99.90;;;;;;5108702;27;20043;-83
2023/03/16 10:27:03;;;;;;;6.40;4.80;;;6.50;99.90;;;;;;5093816;27;20039;-84
2023/03/16 10:29:34;;;;;;;6.30;4.80;;;6.60;99.90;;;;;;5110483;27;20043;-82
2023/03/16 10:32:10;;;;;;;6.72;4.78;;;6.60;99.90;;;;;;5111308;27;20058;-82
2023/03/16 10:34:36;;;;;;;6.78;4.38;;;6.70;99.90;;;;;;5129203;27;20035;-83
2023/03/16 10:37:04;;;;;;;5.20;4.30;;;6.70;99.90;;;;;;5110813;27;20108;-83
2023/03/16 10:39:36;;;;;;;6.28;4.50;;;6.70;99.90;;;;;;5092938;27;20035;-83
2023/03/16 10:42:01;;;;;;;6.50;4.63;;;6.80;99.90;;;;;;5110837;27;20422;-83
2023/03/16 10:44:28;;;;;;;7.43;4.40;;;6.80;99.90;;;;;;5111197;27;20095;-83
2023/03/16 10:47:00;;;;;;;7.88;5.05;;;7.20;99.90;;;;;;5110702;27;20046;-83
2023/03/16 10:49:41;;;;;;;6.07;4.28;;;6.80;99.90;;;;;;5094310;27;20050;-83
2023/03/16 10:52:36;;;;;;;6.03;4.47;;;6.90;99.90;;;;;;5111016;27;20043;-82
2023/03/16 10:55:31;;;;;;;8.02;4.70;;;6.90;99.90;;;;;;5129814;27;20047;-83
2023/03/16 10:57:57;;;;;;;8.73;4.30;;;6.90;99.90;;;;;;5109316;27;20122;-83
2023/03/16 11:00:35;;;;;;;6.68;4.53;;;7.00;99.90;;;;;;5093899;27;20036;-83
2023/03/16 11:03:11;;;;;;;5.70;4.30;;;7.10;99.90;;;;;;5109428;27;20537;-82
2023/03/16 11:05:37;;;;;;;6.93;4.32;;;7.10;99.90;;;;;;5089946;28;20126;-83
2023/03/16 11:08:12;;;;;;;8.38;3.88;;;7.10;99.90;;;;;;5101854;27;20126;-82
2023/03/16 11:10:59;;;;;;;5.60;4.03;;;6.90;99.90;;;;;;5117002;27;20121;-82
2023/03/16 11:13:34;;;;;;;7.32;4.32;;;7.10;99.90;;;;;;5091905;27;20050;-82
2023/03/16 11:16:34;;;;;;;5.40;3.90;;;7.10;99.90;;;;;;5093941;27;20051;-83
2023/03/16 11:19:08;;;;;;;5.85;4.18;;;7.10;99.90;;;;;;5109829;27;20481;-84
2023/03/16 11:21:45;;;;;;;5.88;3.85;;;7.10;99.90;;;;;;5106061;27;20043;-84
2023/03/16 11:24:23;;;;;;;5.72;4.20;;;7.60;99.90;;;;;;5114747;27;20191;-83
2023/03/16 11:26:56;;;;;;;5.45;4.05;;;7.10;99.90;;;;;;5097837;27;20051;-83
2023/03/16 11:29:47;;;;;;;9.25;4.03;;;7.20;99.90;;;;;;5092205;27;20047;-84
2023/03/16 11:32:32;;;;;;;6.60;3.63;;;7.20;99.90;;;;;;5107569;27;20058;-83
2023/03/16 11:34:59;;;;;;;5.72;3.60;;;7.20;99.90;;;;;;5097541;28;20056;-83
2023/03/16 11:37:58;;;;;;;6.55;3.83;;;7.30;99.90;;;;;;5074947;28;20048;-83
2023/03/16 11:40:38;;;;;;;4.40;4.00;;;7.40;99.90;;;;;;5068643;28;20048;-83
2023/03/16 11:43:29;;;;;;;4.90;3.75;;;7.50;99.90;;;;;;5085731;28;20116;-84
2023/03/16 11:46:10;;;;;;;5.10;3.45;;;7.50;99.90;;;;;;5085688;28;20131;-83
2023/03/16 11:48:58;;;;;;;4.40;3.42;;;7.60;99.90;;;;;;5066220;28;20410;-84
2023/03/16 11:52:01;;;;;;;5.30;3.40;;;7.70;99.90;;;;;;5085035;28;20067;-84
2023/03/16 11:54:54;;;;;;;7.20;3.50;;;7.90;99.90;;;;;;5035142;28;20060;-82
2023/03/16 11:57:48;;;;;;;5.55;3.42;;;8.00;99.90;;;;;;5079818;28;20302;-83
2023/03/16 12:00:30;;;;;;;5.47;3.20;;;8.10;99.90;;;;;;5051009;28;20537;-84
2023/03/16 12:03:16;;;;;;;6.45;3.85;;;8.30;99.90;;;;;;5081163;28;20139;-85
2023/03/16 12:06:03;;;;;;;7.63;3.55;;;8.50;99.90;;;;;;5085342;28;20048;-84
2023/03/16 12:09:03;;;;;;;7.20;3.35;;;8.70;99.90;;;;;;5083480;28;20040;-83
2023/03/16 12:11:51;;;;;;;4.32;3.35;;;8.80;99.90;;;;;;5084501;28;20055;-82
2023/03/16 12:14:33;;;;;;;5.00;3.42;;;9.10;99.90;;;;;;5068847;28;20369;-82
2023/03/16 12:17:17;;;;;;;5.97;3.80;;;9.20;99.90;;;;;;5086222;28;20048;-82
2023/03/16 12:19:48;;;;;;;3.70;3.10;;;9.30;99.90;;;;;;5074113;28;20040;-82
2023/03/16 12:22:22;;;;;;;4.93;3.38;;;9.30;99.90;;;;;;5051350;28;20048;-82
2023/03/16 12:24:49;;;;;;;4.13;3.28;;;9.50;99.90;;;;;;5076090;28;20043;-81
2023/03/16 12:27:19;;;;;;;4.15;3.38;;;9.50;99.90;;;;;;5091521;28;20472;-81
2023/03/16 12:29:58;;;;;;;4.82;3.17;;;9.50;99.90;;;;;;5092066;28;20043;-81
2023/03/16 12:32:49;;;;;;;5.15;3.15;;;9.50;99.90;;;;;;5089641;28;20048;-81
2023/03/16 12:35:39;;;;;;;5.05;3.08;;;9.60;99.90;;;;;;5099865;28;20047;-81
2023/03/16 12:38:32;;;;;;;3.78;2.85;;;9.60;99.90;;;;;;5109243;28;20092;-81
2023/03/16 12:41:19;;;;;;;4.25;3.00;;;9.60;99.90;;;;;;5092348;28;20436;-81
2023/03/16 12:44:08;;;;;;;5.18;3.50;;;9.60;99.90;;;;;;5110490;28;20050;-81
2023/03/16 12:47:00;;;;;;;7.10;3.25;;;9.60;99.90;;;;;;5110749;28;20084;-81
2023/03/16 12:49:30;;;;;;;6.10;3.40;;;9.60;99.90;;;;;;5110487;28;20051;-81
2023/03/16 12:52:02;;;;;;;5.85;4.30;;;9.60;99.90;;;;;;5111682;28;20054;-81
2023/03/16 12:54:28;;;;;;;4.80;3.40;;;9.60;99.90;;;;;;5111356;28;20097;-81
2023/03/16 12:57:06;;;;;;;5.53;3.35;;;9.60;99.90;;;;;;5110630;28;20146;-80
2023/03/16 12:59:57;;;;;;;4.03;3.15;;;9.60;99.90;;;;;;5110090;28;20139;-81
2023/03/16 13:02:30;;;;;;;5.05;3.13;;;9.50;99.90;;;;;;5112200;28;20051;-81
2023/03/16 13:05:08;;;;;;;7.78;4.07;;;9.50;99.90;;;;;;5110355;28;20493;-80
2023/03/16 13:07:36;;;;;;;3.67;3.22;;;9.50;99.90;;;;;;5110135;28;20074;-81
2023/03/16 13:10:09;;;;;;;3.20;2.90;;;9.50;99.90;;;;;;5109802;28;20134;-80
2023/03/16 13:12:37;;;;;;;4.38;3.10;;;9.50;99.90;;;;;;5110161;28;20104;-81
2023/03/16 13:15:23;;;;;;;4.65;3.00;;;9.60;99.90;;;;;;5093211;28;20740;-81